Wolseley, Canada
Current Conditions -  °F | °C
As of 6:47 AM on Monday 22 Dec 2014 (Local Time) from CYQR Reporting Station
Haze Haze  
Wind Chill: 12°   Ceiling: 200
Heat Index: 23°   Visibility: 0.75mi
Dew Point: 23°   Wind: 10mph
Humidity: 100%   Direction: 330°NNW
Pressure: 29.56"   Gusts: NA
Location:  50.42°N, 103.27°W
Report Text: CYQR 221247Z 33009KT 3/4SM R13/5000FT/N BR VV002 M05/M05 A2956 RMK FG8 INTMT -SN SLP045
Loading
Personal Weather Stations






























Interactive Weather Map New forecast layout! Learn more

10-Day Weather Forecast

Advertisements
Track Severe Weather on mobile